Terminal Aerodrome Forecast
Issued by NWS

Home | Current Version | Previous Version | Text Only | Print | Product List | Glossary On
Versions: 1 2 3 4 5 6 7 8 9 10 11 12 13 14 15 16 17 18 19 20 21 22 23 24 25 26 27 28
000
FTUS45 KBOI 041740
TAFMYL
TAF
KMYL 041740Z 0418/0518 20010KT P6SM FEW100
     FM050300 VRB06KT P6SM VCSH BKN050 OVC100
     FM051000 VRB05KT P6SM -SHRA SCT010 OVC020=

USA.gov is the U.S. government's official web portal to all federal, state and local government web resources and services.